Time;durP1;ratioP1;P1;durP2;ratioP2;P2;SDS_P1;SDS_P2;PMS_P1;PMS_P2;Temp;Humidity;BMP_temperature;BMP_pressure;BME280_temperature;BME280_humidity;BME280_pressure;Samples;Min_cycle;Max_cycle;Signal;HPM_P1;HPM_P2
2022/01/24 00:01:00;;;;;;;10.68;1.52;;;;;;;6.40;100.00;102547.31;4912341;29;20043;-84
2022/01/24 00:03:26;;;;;;;12.35;1.92;;;;;;;6.16;100.00;102513.63;4896228;29;20044;-83
2022/01/24 00:05:52;;;;;;;17.20;1.75;;;;;;;6.08;100.00;102505.41;4911378;29;20028;-84
2022/01/24 00:08:17;;;;;;;15.50;1.98;;;;;;;6.17;100.00;102512.66;4908141;29;20043;-83
2022/01/24 00:10:45;;;;;;;12.48;1.85;;;;;;;6.04;100.00;102499.47;4930081;29;20446;-83
2022/01/24 00:27:05;;;;;;;14.05;1.92;;;;;;;6.34;100.00;102546.84;4931049;29;20063;-84
2022/01/24 00:29:30;;;;;;;15.18;1.95;;;;;;;6.33;100.00;102550.50;4930785;29;20435;-84
2022/01/24 00:31:56;;;;;;;19.00;2.30;;;;;;;5.95;100.00;102486.88;4929113;29;20040;-83
2022/01/24 00:34:23;;;;;;;14.10;2.75;;;;;;;5.89;100.00;102473.97;4930366;29;20059;-84
2022/01/24 00:36:49;;;;;;;16.33;2.90;;;;;;;6.27;100.00;102542.13;4913930;29;20100;-84
2022/01/24 00:39:15;;;;;;;11.57;1.52;;;;;;;6.05;100.00;102501.16;4928140;29;20048;-85
2022/01/24 00:41:51;;;;;;;9.50;1.45;;;;;;;6.04;100.00;102491.44;4913861;29;20020;-83
2022/01/24 00:46:53;;;;;;;16.38;2.30;;;;;;;6.32;100.00;102531.88;4930181;29;20438;-84
2022/01/24 00:57:03;;;;;;;12.48;2.05;;;;;;;6.11;100.00;102497.97;4929838;29;20036;-84
2022/01/24 00:59:29;;;;;;;11.65;1.58;;;;;;;6.68;100.00;102580.59;4929246;29;20032;-83
2022/01/24 01:01:57;;;;;;;13.18;2.53;;;;;;;6.89;100.00;102618.91;4926811;29;20203;-83
2022/01/24 01:04:29;;;;;;;12.15;1.75;;;;;;;6.21;100.00;102523.94;4913648;29;20091;-84
2022/01/24 01:06:56;;;;;;;16.05;1.73;;;;;;;5.81;100.00;102452.41;4912976;29;20111;-83
2022/01/24 01:20:25;;;;;;;18.40;2.28;;;;;;;5.62;100.00;102451.25;4912297;29;20498;-85
2022/01/24 01:22:51;;;;;;;16.50;2.35;;;;;;;5.95;100.00;102508.25;4927544;29;20040;-83
2022/01/24 01:25:17;;;;;;;17.52;2.40;;;;;;;6.02;100.00;102528.13;4928650;29;20056;-83
2022/01/24 01:27:45;;;;;;;18.42;2.00;;;;;;;5.72;100.00;102469.19;4913710;29;20020;-83
2022/01/24 01:30:18;;;;;;;18.45;2.38;;;;;;;5.95;100.00;102518.94;4930680;29;20028;-82
2022/01/24 01:33:11;;;;;;;16.67;2.55;;;;;;;5.81;100.00;102489.81;4901021;29;20044;-85
2022/01/24 01:57:01;;;;;;;15.95;2.10;;;;;;;5.74;100.00;102475.25;4935399;29;20055;-85
2022/01/24 01:59:26;;;;;;;12.45;2.33;;;;;;;5.84;100.00;102501.09;4920699;29;20133;-85
2022/01/24 02:01:52;;;;;;;15.75;2.35;;;;;;;5.91;100.00;102509.44;4917570;29;20032;-85
2022/01/24 02:04:19;;;;;;;24.48;2.75;;;;;;;6.43;100.00;102582.66;4928548;29;20051;-83
2022/01/24 02:06:44;;;;;;;18.25;2.25;;;;;;;6.46;100.00;102593.09;4929168;29;20030;-83
2022/01/24 02:09:12;;;;;;;20.77;2.20;;;;;;;5.74;100.00;102464.59;4912009;29;20024;-85
2022/01/24 02:11:38;;;;;;;18.52;2.70;;;;;;;5.61;100.00;102451.38;4925750;29;20024;-83
2022/01/24 02:14:08;;;;;;;14.27;2.15;;;;;;;5.55;100.00;102442.03;4912735;29;20084;-83
2022/01/24 02:19:19;;;;;;;16.90;2.53;;;;;;;5.78;100.00;102496.25;4928711;29;20027;-86
2022/01/24 02:22:41;;;;;;;15.65;2.33;;;;;;;6.24;100.00;102561.94;4927548;29;20020;-82
2022/01/24 02:24:51;;;;;;;16.70;2.83;;;;;;;6.03;100.00;102547.72;4923083;29;20035;-84
2022/01/24 02:27:18;;;;;;;21.55;2.90;;;;;;;5.76;100.00;102502.69;4914578;29;20056;-84
2022/01/24 02:30:10;;;;;;;19.38;2.97;;;;;;;5.36;100.00;102440.06;4928619;29;20100;-83
2022/01/24 02:32:40;;;;;;;19.23;2.78;;;;;;;6.26;100.00;102605.47;4912659;29;20071;-83
2022/01/24 02:35:08;;;;;;;17.17;3.17;;;;;;;5.62;100.00;102490.47;4912677;29;20040;-83
2022/01/24 02:37:34;;;;;;;9.50;1.75;;;;;;;5.71;100.00;102535.13;4930012;29;20087;-84
2022/01/24 02:40:12;;;;;;;9.70;1.85;;;;;;;5.64;100.00;102524.09;4929622;29;20064;-82
2022/01/24 02:53:20;;;;;;;12.18;1.60;;;;;;;5.51;100.00;102477.16;4929335;29;20028;-84
2022/01/24 02:55:49;;;;;;;5.63;1.20;;;;;;;5.47;100.00;102470.38;4913461;29;20432;-83
2022/01/24 02:58:16;;;;;;;14.60;2.58;;;;;;;5.33;100.00;102440.31;4912192;29;20107;-82
2022/01/24 03:00:43;;;;;;;13.95;2.00;;;;;;;5.54;100.00;102467.06;4927395;29;20092;-83
2022/01/24 03:03:09;;;;;;;15.35;2.13;;;;;;;5.92;100.00;102524.47;4911975;29;20117;-83
2022/01/24 03:05:34;;;;;;;13.73;2.28;;;;;;;5.36;100.00;102442.72;4928135;29;20459;-83
2022/01/24 03:08:00;;;;;;;16.70;2.20;;;;;;;5.58;100.00;102471.16;4913526;29;20028;-83
2022/01/24 03:10:37;;;;;;;17.83;2.83;;;;;;;5.64;100.00;102478.69;4929921;29;20143;-83
2022/01/24 03:15:51;;;;;;;18.55;2.83;;;;;;;5.55;100.00;102479.44;4927865;29;20046;-85
2022/01/24 03:18:19;;;;;;;21.35;3.15;;;;;;;5.12;100.00;102410.84;4914363;29;20043;-84
2022/01/24 03:20:46;;;;;;;19.27;2.65;;;;;;;5.17;100.00;102426.50;4913511;29;20028;-84
2022/01/24 03:23:13;;;;;;;17.80;2.72;;;;;;;5.37;100.00;102462.25;4930557;29;20027;-84
2022/01/24 03:25:39;;;;;;;20.15;3.45;;;;;;;5.60;100.00;102476.41;4913166;29;20056;-84
2022/01/24 03:28:05;;;;;;;20.63;2.80;;;;;;;5.32;100.00;102445.75;4929822;29;20032;-84
2022/01/24 03:30:32;;;;;;;23.38;4.25;;;;;;;5.33;100.00;102442.09;4897445;29;20039;-85
2022/01/24 03:32:57;;;;;;;18.35;2.70;;;;;;;5.13;100.00;102423.25;4894585;29;20057;-84
2022/01/24 03:35:23;;;;;;;20.27;2.75;;;;;;;5.46;100.00;102492.69;4894348;29;20032;-85
2022/01/24 03:37:49;;;;;;;23.48;2.92;;;;;;;5.36;100.00;102460.53;4901572;29;20038;-85
2022/01/24 03:40:14;;;;;;;16.60;2.08;;;;;;;5.58;100.00;102489.88;4935998;28;20037;-85
2022/01/24 03:42:40;;;;;;;22.23;2.53;;;;;;;5.18;100.00;102442.38;4931667;29;20020;-85
2022/01/24 03:45:09;;;;;;;22.15;2.17;;;;;;;5.08;100.00;102417.41;4931313;29;20024;-84
2022/01/24 03:50:03;;;;;;;17.88;2.05;;;;;;;5.18;100.00;102450.38;4931942;29;20032;-85
2022/01/24 03:52:30;;;;;;;12.95;2.20;;;;;;;5.10;100.00;102438.63;4924210;29;20032;-84
2022/01/24 03:54:56;;;;;;;25.65;3.13;;;;;;;5.10;100.00;102434.16;4912445;29;20039;-85
2022/01/24 03:57:22;;;;;;;21.30;2.50;;;;;;;5.51;100.00;102486.00;4917983;29;20028;-85
2022/01/24 03:59:49;;;;;;;19.90;2.67;;;;;;;5.98;100.00;102555.25;4930444;29;20080;-85
2022/01/24 04:02:16;;;;;;;19.75;2.63;;;;;;;5.04;100.00;102402.63;4913241;29;20031;-85
2022/01/24 04:04:43;;;;;;;21.58;2.95;;;;;;;5.28;100.00;102450.50;4930602;29;20055;-85
2022/01/24 04:07:09;;;;;;;20.48;2.70;;;;;;;5.56;100.00;102481.16;4930254;29;20106;-85
2022/01/24 04:09:36;;;;;;;16.80;2.30;;;;;;;5.36;100.00;102473.88;4931941;29;20036;-85
2022/01/24 04:12:02;;;;;;;26.27;2.28;;;;;;;5.39;100.00;102462.97;4935178;29;20024;-84
2022/01/24 04:14:36;;;;;;;16.58;2.45;;;;;;;5.36;100.00;102463.22;4917408;29;20028;-85
2022/01/24 04:17:36;;;;;;;14.45;2.10;;;;;;;4.91;100.00;102413.44;4935012;29;20024;-84
2022/01/24 04:22:22;;;;;;;18.08;1.90;;;;;;;4.99;100.00;102411.97;4934021;29;20035;-85
2022/01/24 04:24:49;;;;;;;14.45;2.15;;;;;;;5.47;100.00;102497.91;4918675;29;20064;-84
2022/01/24 04:27:15;;;;;;;14.15;1.83;;;;;;;5.23;100.00;102436.69;4934756;29;20055;-85
2022/01/24 04:29:42;;;;;;;11.13;1.90;;;;;;;5.21;100.00;102445.78;4918712;29;20028;-84
2022/01/24 04:32:08;;;;;;;13.52;2.08;;;;;;;5.05;100.00;102423.00;4918851;29;20040;-84
2022/01/24 04:34:34;;;;;;;15.90;1.85;;;;;;;5.17;100.00;102438.03;4917644;29;20048;-85
2022/01/24 04:36:59;;;;;;;10.20;1.73;;;;;;;4.99;100.00;102396.81;4918492;29;20036;-84
2022/01/24 04:39:25;;;;;;;12.50;1.98;;;;;;;5.22;100.00;102431.47;4935085;29;20032;-85
2022/01/24 04:41:54;;;;;;;13.98;2.60;;;;;;;5.31;100.00;102444.91;4916338;29;20032;-86
2022/01/24 04:47:23;;;;;;;17.73;2.05;;;;;;;5.12;100.00;102413.50;4878637;29;20104;-85
2022/01/24 04:54:59;;;;;;;11.02;2.15;;;;;;;5.04;100.00;102381.28;4934550;29;20028;-84
2022/01/24 04:57:26;;;;;;;10.95;1.92;;;;;;;5.00;100.00;102365.63;4918066;29;20071;-86
2022/01/24 04:59:55;;;;;;;11.00;1.70;;;;;;;4.89;100.00;102340.66;4933599;29;20036;-86
2022/01/24 05:02:22;;;;;;;21.10;2.10;;;;;;;5.16;100.00;102408.78;4921362;29;20041;-85
2022/01/24 05:04:48;;;;;;;14.77;2.28;;;;;;;5.16;100.00;102393.59;4897475;29;20028;-83
2022/01/24 05:07:14;;;;;;;11.13;1.92;;;;;;;5.14;100.00;102400.06;4897499;29;20091;-85
2022/01/24 05:09:50;;;;;;;13.80;2.85;;;;;;;5.06;100.00;102383.81;4913538;29;20033;-85
2022/01/24 05:25:38;;;;;;;10.20;1.50;;;;;;;5.21;100.00;102451.13;4931658;29;20133;-83
2022/01/24 05:28:04;;;;;;;8.77;1.40;;;;;;;4.93;100.00;102379.50;4918568;29;20024;-86
2022/01/24 05:30:30;;;;;;;10.43;1.35;;;;;;;5.22;100.00;102448.31;4933362;29;20040;-84
2022/01/24 05:32:56;;;;;;;7.20;1.50;;;;;;;4.94;100.00;102393.66;4919838;29;20079;-85
2022/01/24 05:35:21;;;;;;;8.90;1.38;;;;;;;4.88;100.00;102379.00;4941849;29;20050;-85
2022/01/24 05:37:47;;;;;;;8.85;1.45;;;;;;;5.03;100.00;102408.91;4918731;29;20108;-83
2022/01/24 05:40:13;;;;;;;16.80;1.70;;;;;;;5.16;100.00;102433.63;4915687;29;20028;-83
2022/01/24 05:42:39;;;;;;;8.15;1.60;;;;;;;5.22;100.00;102431.47;4925191;29;20051;-85
2022/01/24 05:45:05;;;;;;;14.00;1.80;;;;;;;5.37;100.00;102462.25;4915290;29;20031;-86
2022/01/24 05:47:31;;;;;;;10.00;1.50;;;;;;;4.93;100.00;102392.81;4936947;29;20039;-85
2022/01/24 05:49:56;;;;;;;10.10;1.50;;;;;;;5.37;100.00;102459.59;4913501;29;20032;-85
2022/01/24 05:52:22;;;;;;;7.70;1.27;;;;;;;5.10;100.00;102419.94;4904539;29;20024;-85
2022/01/24 05:54:48;;;;;;;13.10;1.70;;;;;;;5.22;100.00;102434.97;4914388;29;20039;-86
2022/01/24 05:57:13;;;;;;;14.98;1.58;;;;;;;5.05;100.00;102423.00;4935359;29;20016;-85
2022/01/24 05:59:39;;;;;;;14.85;1.77;;;;;;;5.11;100.00;102427.84;4930875;29;20028;-84
2022/01/24 06:02:05;;;;;;;10.63;1.73;;;;;;;5.65;100.00;102503.56;4915299;29;20028;-85
2022/01/24 06:04:31;;;;;;;13.73;1.63;;;;;;;5.30;100.00;102442.38;4911992;29;20142;-86
2022/01/24 06:06:58;;;;;;;13.60;1.60;;;;;;;5.02;100.00;102396.56;4906250;29;20157;-84
2022/01/24 06:09:23;;;;;;;10.00;1.55;;;;;;;5.14;100.00;102422.25;4910089;29;20431;-83
2022/01/24 06:11:50;;;;;;;12.75;1.50;;;;;;;5.87;100.00;102538.22;4912876;29;20035;-87
2022/01/24 06:14:16;;;;;;;12.35;1.70;;;;;;;5.22;100.00;102434.97;4909153;29;20592;-83
2022/01/24 06:16:42;;;;;;;8.88;1.33;;;;;;;5.84;100.00;102546.50;4922296;29;20036;-81
2022/01/24 06:19:07;;;;;;;16.08;1.48;;;;;;;5.43;100.00;102467.09;4907423;29;20481;-81
2022/01/24 06:21:33;;;;;;;7.70;1.30;;;;;;;5.89;100.00;102533.63;4911043;29;20035;-82
2022/01/24 06:23:58;;;;;;;10.82;2.05;;;;;;;5.02;100.00;102401.03;4909978;29;20036;-82
2022/01/24 06:26:24;;;;;;;11.13;1.60;;;;;;;4.91;100.00;102365.41;4916352;29;20028;-83
2022/01/24 06:28:49;;;;;;;10.40;1.60;;;;;;;5.27;100.00;102432.78;4925111;29;20028;-84
2022/01/24 06:31:15;;;;;;;14.05;2.47;;;;;;;5.31;100.00;102438.72;4915551;29;20031;-87
2022/01/24 06:33:41;;;;;;;12.50;2.42;;;;;;;5.93;100.00;102541.38;4937294;29;20183;-88
2022/01/24 06:36:06;;;;;;;18.73;2.10;;;;;;;5.10;100.00;102403.94;4931065;29;20064;-87
2022/01/24 06:38:32;;;;;;;12.75;1.73;;;;;;;4.98;100.00;102372.94;4932094;29;20027;-87
2022/01/24 06:40:58;;;;;;;14.98;1.63;;;;;;;5.02;100.00;102393.88;4933761;29;20077;-86
2022/01/24 06:43:24;;;;;;;16.38;2.17;;;;;;;4.99;100.00;102388.78;4933123;29;20046;-87
2022/01/24 06:45:49;;;;;;;16.38;1.42;;;;;;;5.46;100.00;102461.47;4916172;29;20020;-86
2022/01/24 06:48:15;;;;;;;12.38;1.80;;;;;;;5.32;100.00;102424.41;4934222;29;20631;-86
2022/01/24 06:50:41;;;;;;;15.15;2.22;;;;;;;5.36;100.00;102436.50;4933762;29;20051;-86
2022/01/24 06:53:06;;;;;;;14.60;2.08;;;;;;;4.98;100.00;102357.75;4928730;29;20028;-84
2022/01/24 06:55:32;;;;;;;13.98;2.40;;;;;;;5.46;100.00;102433.94;4930021;29;20052;-86
2022/01/24 06:57:58;;;;;;;12.52;2.50;;;;;;;5.09;100.00;102380.91;4913869;29;20123;-86
2022/01/24 07:00:29;;;;;;;15.55;2.50;;;;;;;5.42;100.00;102444.88;4918610;29;20060;-87
2022/01/24 07:02:56;;;;;;;15.73;2.42;;;;;;;5.34;100.00;102419.78;4933068;29;20039;-86
2022/01/24 07:05:23;;;;;;;14.63;2.10;;;;;;;5.38;100.00;102430.09;4916982;29;20818;-86
2022/01/24 07:07:49;;;;;;;17.13;2.30;;;;;;;5.06;100.00;102386.47;4916157;29;20024;-86
2022/01/24 07:10:14;;;;;;;13.48;2.60;;;;;;;5.04;100.00;102383.94;4929852;29;20024;-84
2022/01/24 07:12:40;;;;;;;12.02;2.17;;;;;;;5.15;100.00;102393.75;4910957;29;20024;-84
2022/01/24 07:15:11;;;;;;;18.80;2.78;;;;;;;5.33;100.00;102418.94;4927989;29;20059;-83
2022/01/24 07:20:09;;;;;;;16.52;2.92;;;;;;;5.41;100.00;102420.97;4930159;29;20072;-85
2022/01/24 07:22:34;;;;;;;21.90;2.83;;;;;;;5.16;100.00;102382.09;4912972;29;20035;-84
2022/01/24 07:25:00;;;;;;;19.42;3.15;;;;;;;5.09;100.00;102373.72;4934342;29;20502;-86
2022/01/24 07:27:25;;;;;;;19.67;2.80;;;;;;;5.11;100.00;102385.16;4913746;29;20070;-84
2022/01/24 07:29:51;;;;;;;22.33;2.53;;;;;;;4.99;100.00;102364.78;4931900;29;20020;-85
2022/01/24 07:32:16;;;;;;;19.38;2.80;;;;;;;5.52;100.00;102462.81;4924762;29;20048;-80
2022/01/24 07:34:42;;;;;;;15.60;2.80;;;;;;;5.98;100.00;102526.69;4915589;29;20023;-85
2022/01/24 07:37:09;;;;;;;16.45;2.92;;;;;;;5.38;100.00;102413.22;4915737;29;20055;-84
2022/01/24 07:39:34;;;;;;;20.60;3.10;;;;;;;5.37;100.00;102417.72;4929647;29;20055;-83
2022/01/24 07:42:06;;;;;;;16.70;3.40;;;;;;;5.95;100.00;102520.75;4914465;29;20028;-87
2022/01/24 07:44:32;;;;;;;18.92;3.28;;;;;;;5.10;100.00;102371.91;4916163;29;20032;-86
2022/01/24 07:46:57;;;;;;;14.60;2.70;;;;;;;5.47;100.00;102439.19;4934727;29;20474;-86
2022/01/24 07:49:23;;;;;;;22.98;3.08;;;;;;;5.29;100.00;102405.97;4916396;29;20039;-84
2022/01/24 07:51:49;;;;;;;16.98;3.28;;;;;;;5.71;100.00;102464.84;4915168;29;20039;-85
2022/01/24 07:54:14;;;;;;;23.25;3.70;;;;;;;5.40;100.00;102413.97;4919148;29;20028;-84
2022/01/24 07:56:40;;;;;;;13.95;2.58;;;;;;;5.39;100.00;102429.09;4918288;29;20028;-85
2022/01/24 07:59:06;;;;;;;20.70;3.15;;;;;;;5.51;100.00;102429.94;4930261;29;20028;-86
2022/01/24 08:01:32;;;;;;;22.85;3.13;;;;;;;6.10;100.00;102524.84;4919878;29;20362;-87
2022/01/24 08:03:58;;;;;;;16.95;3.00;;;;;;;5.30;100.00;102405.00;4932158;29;20032;-85
2022/01/24 08:06:23;;;;;;;17.50;2.63;;;;;;;5.28;100.00;102396.25;4916847;29;20032;-87
2022/01/24 08:08:49;;;;;;;18.83;3.20;;;;;;;5.50;100.00;102430.06;4919925;29;20072;-86
2022/01/24 08:11:17;;;;;;;16.58;2.80;;;;;;;5.56;100.00;102442.88;4935525;29;20059;-85
2022/01/24 08:13:43;;;;;;;20.25;3.60;;;;;;;5.55;100.00;102439.38;4932822;29;20035;-85
2022/01/24 08:16:09;;;;;;;20.85;3.10;;;;;;;5.65;100.00;102450.16;4922431;29;20064;-84
2022/01/24 08:18:34;;;;;;;19.08;2.90;;;;;;;5.84;100.00;102492.22;4915604;29;20024;-82
2022/01/24 08:21:00;;;;;;;15.93;2.75;;;;;;;5.45;100.00;102425.09;4930261;29;20035;-85
2022/01/24 08:23:25;;;;;;;16.25;2.65;;;;;;;5.70;100.00;102455.97;4908076;29;20047;-83
2022/01/24 08:25:51;;;;;;;20.08;3.30;;;;;;;5.28;100.00;102388.25;4912788;29;20020;-83
2022/01/24 08:28:16;;;;;;;18.48;2.55;;;;;;;5.30;100.00;102376.50;4928271;29;20024;-85
2022/01/24 08:30:42;;;;;;;27.20;3.90;;;;;;;5.44;100.00;102393.19;4931196;29;20450;-86
2022/01/24 08:33:08;;;;;;;14.15;3.08;;;;;;;6.35;100.00;102535.16;4913727;29;20076;-84
2022/01/24 08:35:33;;;;;;;18.88;3.28;;;;;;;5.44;100.00;102395.88;4910098;29;20032;-84
2022/01/24 08:37:59;;;;;;;15.70;2.90;;;;;;;5.76;100.00;102435.91;4908515;29;20020;-83
2022/01/24 08:40:27;;;;;;;21.80;2.92;;;;;;;5.29;100.00;102364.09;4906629;29;20041;-82
2022/01/24 08:43:01;;;;;;;13.50;2.63;;;;;;;5.57;100.00;102404.56;4906231;29;20037;-86
2022/01/24 08:48:29;;;;;;;17.55;3.60;;;;;;;5.32;100.00;102365.69;4900516;29;20024;-82
2022/01/24 08:50:56;;;;;;;21.02;3.47;;;;;;;6.05;100.00;102463.75;4905353;29;20024;-83
2022/01/24 08:53:23;;;;;;;19.25;3.30;;;;;;;5.68;100.00;102417.00;4907528;29;20024;-83
2022/01/24 08:55:50;;;;;;;13.73;2.92;;;;;;;5.62;100.00;102395.16;4907819;29;20076;-83
2022/01/24 08:58:16;;;;;;;17.88;3.10;;;;;;;5.45;100.00;102365.50;4909621;29;20044;-83
2022/01/24 09:00:44;;;;;;;16.15;3.15;;;;;;;5.53;100.00;102389.75;4910662;29;20028;-83
2022/01/24 09:03:11;;;;;;;16.63;3.20;;;;;;;5.74;100.00;102419.19;4906470;29;20029;-86
2022/01/24 09:05:37;;;;;;;20.08;3.20;;;;;;;5.55;100.00;102383.31;4912616;29;20674;-83
2022/01/24 09:08:04;;;;;;;17.95;3.08;;;;;;;6.41;100.00;102528.44;4904447;29;20035;-83
2022/01/24 09:10:32;;;;;;;20.15;3.72;;;;;;;5.47;100.00;102388.44;4906160;29;20028;-84
2022/01/24 09:12:58;;;;;;;14.98;2.90;;;;;;;5.69;100.00;102411.53;4909130;29;20040;-84
2022/01/24 09:15:23;;;;;;;21.30;3.65;;;;;;;5.65;100.00;102426.13;4909167;29;20519;-83
2022/01/24 09:17:49;;;;;;;16.77;3.65;;;;;;;5.73;100.00;102434.34;4909453;29;21084;-84
2022/01/24 09:20:15;;;;;;;17.52;3.42;;;;;;;6.21;100.00;102494.53;4911021;29;20020;-83
2022/01/24 09:22:41;;;;;;;19.63;3.65;;;;;;;6.03;100.00;102475.56;4911461;29;20032;-86
2022/01/24 09:25:11;;;;;;;14.95;3.83;;;;;;;5.81;100.00;102445.25;4921753;29;20043;-86
2022/01/24 09:27:38;;;;;;;23.15;3.95;;;;;;;6.23;100.00;102490.75;4926595;29;20013;-84
2022/01/24 09:30:08;;;;;;;26.23;4.38;;;;;;;5.37;100.00;102340.31;4918856;29;20388;-86
2022/01/24 09:32:33;;;;;;;19.20;3.50;;;;;;;5.62;100.00;102380.97;4902129;29;20032;-86
2022/01/24 09:34:59;;;;;;;19.63;3.67;;;;;;;6.06;100.00;102451.22;4929145;29;20084;-82
2022/01/24 09:37:31;;;;;;;20.95;3.80;;;;;;;6.33;100.00;102507.72;4926995;29;20039;-84
2022/01/24 09:39:57;;;;;;;21.80;4.45;;;;;;;6.09;100.00;102461.66;4929622;29;20024;-84
2022/01/24 09:42:25;;;;;;;19.70;4.00;;;;;;;6.41;100.00;102499.03;4916845;29;20051;-85
2022/01/24 09:44:51;;;;;;;19.27;3.75;;;;;;;5.42;100.00;102347.91;4929625;29;20032;-84
2022/01/24 09:47:17;;;;;;;22.15;4.45;;;;;;;5.77;100.00;102400.22;4904459;29;20092;-84
2022/01/24 09:49:45;;;;;;;29.65;4.57;;;;;;;5.58;100.00;102374.19;4929887;29;20083;-85
2022/01/24 09:52:10;;;;;;;27.92;4.65;;;;;;;5.52;100.00;102356.00;4912944;29;20020;-84
2022/01/24 09:54:36;;;;;;;17.95;4.40;;;;;;;5.78;100.00;102401.91;4932015;29;20024;-86
2022/01/24 09:57:02;;;;;;;24.20;4.65;;;;;;;5.39;100.00;102350.84;4936462;29;20039;-86
2022/01/24 09:59:28;;;;;;;21.35;4.18;;;;;;;5.77;100.00;102410.91;4917721;29;20119;-86
2022/01/24 10:01:54;;;;;;;22.88;4.50;;;;;;;5.35;100.00;102363.59;4930302;29;20039;-86
2022/01/24 10:04:20;;;;;;;27.73;4.65;;;;;;;5.54;100.00;102394.97;4913855;29;20024;-86
2022/01/24 10:06:58;;;;;;;24.75;4.45;;;;;;;6.27;100.00;102502.03;4929397;29;20056;-84
2022/01/24 10:09:49;;;;;;;28.13;4.68;;;;;;;5.46;100.00;102388.56;4913712;29;20092;-84
2022/01/24 10:17:53;;;;;;;23.75;4.55;;;;;;;6.19;100.00;102509.84;4934534;29;20043;-85
2022/01/24 10:20:23;;;;;;;30.23;4.75;;;;;;;5.77;100.00;102440.28;4933828;29;20020;-87
2022/01/24 10:23:27;;;;;;;20.40;4.20;;;;;;;5.41;100.00;102364.91;4915641;29;20475;-85
2022/01/24 10:25:59;;;;;;;23.15;4.28;;;;;;;6.23;100.00;102497.94;4872081;29;20025;-87
2022/01/24 10:28:41;;;;;;;23.88;3.78;;;;;;;5.39;100.00;102367.69;4861204;29;20084;-86
2022/01/24 10:31:13;;;;;;;25.70;3.72;;;;;;;6.25;100.00;102490.63;4899029;29;20020;-88
2022/01/24 10:34:05;;;;;;;19.88;4.30;;;;;;;6.28;100.00;102493.03;4934315;29;20092;-87
2022/01/24 10:36:35;;;;;;;28.95;4.45;;;;;;;6.25;100.00;102487.94;4923179;29;20021;-88
2022/01/24 10:39:53;;;;;;;23.70;4.57;;;;;;;6.08;100.00;102479.50;4923728;29;20028;-86
2022/01/24 10:44:57;;;;;;;22.70;3.55;;;;;;;6.12;100.00;102485.44;4911994;29;20126;-83
2022/01/24 10:47:29;;;;;;;20.55;4.22;;;;;;;6.05;100.00;102485.13;4908569;29;20035;-85
2022/01/24 10:49:56;;;;;;;31.40;4.28;;;;;;;6.00;100.00;102473.13;4919469;29;20435;-85
2022/01/24 10:52:28;;;;;;;18.60;3.22;;;;;;;6.12;100.00;102485.44;4902096;29;20063;-83
2022/01/24 10:55:19;;;;;;;21.92;3.67;;;;;;;6.15;100.00;102492.38;4917788;29;20028;-84
2022/01/24 10:57:50;;;;;;;22.15;3.95;;;;;;;6.14;100.00;102488.00;4930050;29;20030;-84
2022/01/24 11:00:24;;;;;;;21.77;3.85;;;;;;;6.11;100.00;102481.09;4931735;29;20064;-84
2022/01/24 11:02:52;;;;;;;22.77;3.17;;;;;;;6.13;100.00;102473.81;4931566;29;20024;-84
2022/01/24 11:05:21;;;;;;;19.75;3.83;;;;;;;6.03;100.00;102456.84;4893524;29;20028;-82
2022/01/24 11:08:09;;;;;;;18.10;4.00;;;;;;;6.15;100.00;102465.63;4922204;29;20124;-85
2022/01/24 11:10:41;;;;;;;25.17;3.85;;;;;;;6.00;100.00;102443.75;4897691;29;20370;-84
2022/01/24 11:13:07;;;;;;;27.65;4.40;;;;;;;6.05;100.00;102449.53;4913659;29;20025;-83
2022/01/24 11:15:35;;;;;;;24.65;4.65;;;;;;;6.19;100.00;102469.75;4914221;29;20059;-84
2022/01/24 11:18:02;;;;;;;27.15;4.65;;;;;;;6.19;100.00;102470.63;4917228;29;20056;-85
2022/01/24 11:20:32;;;;;;;27.55;4.75;;;;;;;6.22;100.00;102462.31;4936572;29;20032;-85
2022/01/24 11:23:01;;;;;;;23.55;5.13;;;;;;;6.19;100.00;102470.63;4927926;29;20032;-86
2022/01/24 11:25:36;;;;;;;23.85;4.57;;;;;;;6.17;100.00;102461.88;4927833;29;20029;-83
2022/01/24 11:28:03;;;;;;;31.30;4.78;;;;;;;6.18;100.00;102458.22;4936836;29;20447;-83
2022/01/24 11:30:37;;;;;;;31.00;5.65;;;;;;;6.22;100.00;102459.63;4929061;29;20067;-83
2022/01/24 11:33:05;;;;;;;30.92;5.20;;;;;;;6.23;100.00;102457.84;4911841;29;20107;-82
2022/01/24 11:35:41;;;;;;;23.08;4.70;;;;;;;6.21;100.00;102457.94;4913686;29;20054;-81
2022/01/24 11:38:35;;;;;;;28.88;4.78;;;;;;;6.15;100.00;102452.28;4927016;29;20024;-84
2022/01/24 11:41:02;;;;;;;26.38;4.13;;;;;;;6.18;100.00;102455.53;4911992;29;20335;-83
2022/01/24 11:43:29;;;;;;;31.35;4.68;;;;;;;6.09;100.00;102435.81;4914770;29;20036;-80
2022/01/24 11:46:06;;;;;;;27.98;4.43;;;;;;;6.21;100.00;102444.59;4916844;29;20107;-84
2022/01/24 11:48:33;;;;;;;25.40;4.50;;;;;;;6.17;100.00;102431.63;4931867;29;20040;-84
2022/01/24 11:51:09;;;;;;;25.27;4.38;;;;;;;6.16;100.00;102429.91;4915257;29;20039;-83
2022/01/24 11:53:52;;;;;;;22.08;3.80;;;;;;;6.08;100.00;102414.53;4930542;29;20028;-83
2022/01/24 11:56:18;;;;;;;24.92;3.72;;;;;;;6.26;100.00;102430.84;4885040;29;20031;-83
2022/01/24 11:58:44;;;;;;;26.95;4.95;;;;;;;6.21;100.00;102415.19;4931260;29;20020;-84
2022/01/24 12:01:13;;;;;;;29.90;4.88;;;;;;;6.32;100.00;102414.25;4931991;29;20064;-84
2022/01/24 12:03:49;;;;;;;23.45;4.32;;;;;;;6.36;100.00;102410.38;4903890;29;20032;-79
2022/01/24 12:06:19;;;;;;;26.92;3.95;;;;;;;6.18;100.00;102369.16;4911925;29;20024;-84
2022/01/24 12:08:46;;;;;;;24.45;4.53;;;;;;;6.29;100.00;102382.44;4913613;29;20466;-82
2022/01/24 12:11:31;;;;;;;24.15;4.28;;;;;;;6.39;100.00;102382.50;4929139;29;20032;-83
2022/01/24 12:14:02;;;;;;;21.13;5.55;;;;;;;6.55;100.00;102398.91;4915453;29;20047;-84
2022/01/24 12:16:37;;;;;;;24.25;4.20;;;;;;;6.49;100.00;102386.94;4931204;29;20126;-84
2022/01/24 12:19:04;;;;;;;21.02;3.85;;;;;;;6.57;100.00;102392.44;4915588;29;20031;-84
2022/01/24 12:21:30;;;;;;;26.20;4.30;;;;;;;6.63;100.00;102380.38;4926618;29;20036;-83
2022/01/24 12:24:08;;;;;;;19.27;3.65;;;;;;;6.75;100.00;102389.97;4883115;29;20032;-84
2022/01/24 12:26:57;;;;;;;19.70;3.83;;;;;;;6.76;100.00;102380.16;4913545;29;20024;-83
2022/01/24 12:29:26;;;;;;;20.83;3.88;;;;;;;6.75;100.00;102381.09;4915083;29;20039;-83
2022/01/24 12:31:58;;;;;;;22.55;3.80;;;;;;;6.84;100.00;102385.66;4932315;29;20024;-84
2022/01/24 12:34:37;;;;;;;22.23;3.30;;;;;;;6.87;100.00;102366.66;4934848;29;20056;-83
2022/01/24 12:37:23;;;;;;;21.25;4.32;;;;;;;6.99;100.00;102370.91;4918541;29;20039;-85
2022/01/24 12:39:58;;;;;;;23.00;4.10;;;;;;;6.98;100.00;102374.56;4933073;29;20039;-85
2022/01/24 12:42:51;;;;;;;23.65;3.72;;;;;;;6.99;100.00;102370.06;4920699;29;20095;-85
2022/01/24 12:48:10;;;;;;;17.83;3.70;;;;;;;7.00;100.00;102371.75;4917101;29;20130;-84
2022/01/24 12:50:35;;;;;;;22.10;3.70;;;;;;;6.92;100.00;102363.56;4929010;29;20238;-84
2022/01/24 12:53:07;;;;;;;20.42;3.17;;;;;;;6.97;100.00;102370.19;4914601;29;20508;-84
2022/01/24 12:55:32;;;;;;;21.75;3.22;;;;;;;6.97;100.00;102362.16;4930839;29;20048;-83
2022/01/24 12:57:59;;;;;;;18.88;3.05;;;;;;;7.04;100.00;102365.97;4913956;29;20059;-85
2022/01/24 13:00:24;;;;;;;22.63;4.18;;;;;;;6.97;100.00;102367.53;4913853;29;20059;-84
2022/01/24 13:02:50;;;;;;;19.58;3.55;;;;;;;6.93;100.00;102360.75;4929982;29;20032;-83
2022/01/24 13:05:20;;;;;;;16.17;3.28;;;;;;;6.96;100.00;102370.34;4912039;29;20032;-83
2022/01/24 13:07:56;;;;;;;16.00;2.40;;;;;;;6.87;100.00;102355.09;4910982;29;20028;-83
2022/01/24 13:10:24;;;;;;;18.45;3.33;;;;;;;6.86;100.00;102358.78;4936852;29;20036;-84
2022/01/24 13:13:05;;;;;;;19.65;2.80;;;;;;;6.89;100.00;102370.06;4916027;29;20039;-84
2022/01/24 13:21:26;;;;;;;18.65;3.45;;;;;;;6.76;100.00;102321.28;4942186;28;20024;-86
2022/01/24 13:23:57;;;;;;;24.45;4.03;;;;;;;6.94;100.00;102354.41;4924863;29;20032;-84
2022/01/24 13:26:24;;;;;;;25.70;4.03;;;;;;;6.85;100.00;102343.69;4929673;29;20439;-84